createdAt,value
2022-10-19T00:00:51.149Z,11.41
2022-10-19T00:01:51.210Z,11.50
2022-10-19T00:02:51.131Z,11.59
2022-10-19T00:03:51.164Z,11.66
2022-10-19T00:04:51.135Z,11.66
2022-10-19T00:05:51.113Z,11.55
2022-10-19T00:06:51.094Z,11.60
2022-10-19T00:07:51.092Z,11.54
2022-10-19T00:08:51.067Z,11.59
2022-10-19T00:09:51.067Z,11.48
2022-10-19T00:10:51.088Z,11.51
2022-10-19T00:11:51.051Z,11.50
2022-10-19T00:12:51.061Z,11.50
2022-10-19T00:13:51.036Z,11.63
2022-10-19T00:14:51.021Z,11.59
2022-10-19T00:15:51.013Z,11.54
2022-10-19T00:16:51.029Z,11.66
2022-10-19T00:17:51.048Z,11.60
2022-10-19T00:18:50.987Z,11.72
2022-10-19T00:19:50.979Z,11.57
2022-10-19T00:20:50.972Z,11.54
2022-10-19T00:22:50.970Z,11.50
2022-10-19T00:23:50.955Z,11.47
2022-10-19T00:24:50.944Z,11.48
2022-10-19T00:25:50.953Z,11.43
2022-10-19T00:26:50.947Z,11.52
2022-10-19T00:27:50.942Z,11.40
2022-10-19T00:28:51.025Z,11.43
2022-10-19T00:29:50.898Z,11.33
2022-10-19T00:30:50.908Z,11.19
2022-10-19T00:31:50.882Z,11.22
2022-10-19T00:32:50.887Z,11.25
2022-10-19T00:33:50.886Z,11.29
2022-10-19T00:34:50.878Z,11.18
2022-10-19T00:35:50.849Z,11.10
2022-10-19T00:36:50.853Z,11.05
2022-10-19T00:37:50.825Z,10.99
2022-10-19T00:38:50.837Z,11.04
2022-10-19T00:40:50.815Z,10.99
2022-10-19T00:41:50.798Z,11.02
2022-10-19T00:42:50.797Z,11.04
2022-10-19T00:43:50.782Z,11.02
2022-10-19T00:44:50.794Z,10.87
2022-10-19T00:45:50.765Z,10.82
2022-10-19T00:46:50.753Z,10.81
2022-10-19T00:47:50.746Z,10.71
2022-10-19T00:48:50.747Z,10.64
2022-10-19T00:49:50.731Z,10.61
2022-10-19T00:50:50.740Z,10.60
2022-10-19T00:51:50.713Z,10.61
2022-10-19T00:52:50.702Z,10.49
2022-10-19T00:53:50.698Z,10.46
2022-10-19T00:54:50.692Z,10.44
2022-10-19T00:55:50.681Z,10.49
2022-10-19T00:56:50.704Z,10.53
2022-10-19T00:58:50.666Z,10.51
2022-10-19T00:59:50.654Z,10.54
2022-10-19T01:00:50.683Z,10.54
2022-10-19T01:01:50.642Z,10.61
2022-10-19T01:02:50.694Z,10.69
2022-10-19T01:03:50.634Z,10.69
2022-10-19T01:04:50.613Z,10.60
2022-10-19T01:05:50.607Z,10.57
2022-10-19T01:07:50.592Z,10.54
2022-10-19T01:08:50.607Z,10.49
2022-10-19T01:09:50.582Z,10.41
2022-10-19T01:10:50.574Z,10.40
2022-10-19T01:11:50.564Z,10.34
2022-10-19T01:12:50.557Z,10.23
2022-10-19T01:13:50.556Z,10.19
2022-10-19T01:14:50.574Z,10.16
2022-10-19T01:15:50.636Z,10.25
2022-10-19T01:16:50.521Z,10.25
2022-10-19T01:17:50.517Z,10.31
2022-10-19T01:18:50.536Z,10.22
2022-10-19T01:19:50.493Z,10.15
2022-10-19T01:20:50.521Z,10.13
2022-10-19T01:21:50.483Z,10.10
2022-10-19T01:22:50.475Z,9.92
2022-10-19T01:23:50.471Z,9.91
2022-10-19T01:24:50.505Z,9.83
2022-10-19T01:25:50.460Z,9.72
2022-10-19T01:26:50.480Z,9.59
2022-10-19T01:27:50.446Z,9.50
2022-10-19T01:28:50.535Z,9.44
2022-10-19T01:29:50.421Z,9.41
2022-10-19T01:30:50.441Z,9.34
2022-10-19T01:31:50.420Z,9.36
2022-10-19T01:32:50.397Z,9.31
2022-10-19T01:33:50.451Z,9.23
2022-10-19T01:34:50.387Z,9.25
2022-10-19T01:35:50.380Z,9.26
2022-10-19T01:36:50.375Z,9.23
2022-10-19T01:37:50.365Z,9.28
2022-10-19T01:38:50.380Z,9.40
2022-10-19T01:39:50.363Z,9.32
2022-10-19T01:40:50.392Z,9.37
2022-10-19T01:41:50.331Z,9.32
2022-10-19T01:42:50.375Z,9.19
2022-10-19T01:43:50.320Z,9.18
2022-10-19T01:44:50.312Z,9.16
2022-10-19T01:45:50.309Z,9.19
2022-10-19T01:46:50.308Z,9.08
2022-10-19T01:47:50.288Z,9.00
2022-10-19T01:48:50.279Z,8.92
2022-10-19T01:49:50.274Z,8.91
2022-10-19T01:50:50.269Z,8.92
2022-10-19T01:51:50.294Z,8.89
2022-10-19T01:52:50.255Z,8.91
2022-10-19T01:53:50.240Z,8.87
2022-10-19T01:54:50.233Z,8.82
2022-10-19T01:55:50.222Z,8.66
2022-10-19T01:56:50.234Z,8.82
2022-10-19T01:57:50.222Z,8.67
2022-10-19T01:58:50.206Z,8.73
2022-10-19T01:59:50.195Z,8.81
2022-10-19T02:00:50.276Z,8.74
2022-10-19T02:01:50.177Z,8.76
2022-10-19T02:02:50.277Z,8.74
2022-10-19T02:03:50.180Z,8.78
2022-10-19T02:04:50.165Z,8.76
2022-10-19T02:05:50.170Z,8.85
2022-10-19T02:06:50.202Z,8.81
2022-10-19T02:07:50.138Z,8.88
2022-10-19T02:08:50.130Z,8.88
2022-10-19T02:09:50.111Z,8.97
2022-10-19T02:10:50.121Z,8.95
2022-10-19T02:11:51.336Z,9.00
2022-10-19T02:12:50.116Z,9.02
2022-10-19T02:13:50.107Z,9.03
2022-10-19T02:14:50.102Z,8.94
2022-10-19T02:15:50.074Z,8.95
2022-10-19T02:16:50.066Z,8.97
2022-10-19T02:17:50.061Z,8.89
2022-10-19T02:18:50.084Z,8.94
2022-10-19T02:19:50.040Z,9.06
2022-10-19T02:20:50.041Z,9.03
2022-10-19T02:21:50.032Z,9.02
2022-10-19T02:22:50.030Z,9.03
2022-10-19T02:23:51.887Z,9.11
2022-10-19T02:24:50.026Z,9.10
2022-10-19T02:25:50.001Z,9.11
2022-10-19T02:26:50.028Z,9.14
2022-10-19T02:27:50.020Z,9.13
2022-10-19T02:28:49.982Z,9.06
2022-10-19T02:29:49.968Z,9.11
2022-10-19T02:30:49.973Z,9.19
2022-10-19T02:31:49.960Z,9.11
2022-10-19T02:32:49.959Z,9.06
2022-10-19T02:33:49.968Z,9.03
2022-10-19T02:34:49.937Z,9.08
2022-10-19T02:35:49.925Z,9.03
2022-10-19T02:36:49.921Z,9.02
2022-10-19T02:37:49.913Z,9.04
2022-10-19T02:38:49.909Z,9.04
2022-10-19T02:39:49.921Z,9.02
2022-10-19T02:40:49.898Z,9.04
2022-10-19T02:41:49.886Z,9.08
2022-10-19T02:42:49.903Z,9.10
2022-10-19T02:43:49.890Z,9.22
2022-10-19T02:44:49.871Z,9.16
2022-10-19T02:45:49.877Z,9.10
2022-10-19T02:46:49.877Z,9.11
2022-10-19T02:47:49.841Z,9.06
2022-10-19T02:48:49.845Z,9.11
2022-10-19T02:49:49.834Z,9.11
2022-10-19T02:50:49.822Z,9.11
2022-10-19T02:51:49.815Z,9.18
2022-10-19T02:52:49.833Z,9.18
2022-10-19T02:53:49.802Z,9.10
2022-10-19T02:54:49.792Z,9.13
2022-10-19T02:55:49.785Z,9.11
2022-10-19T02:56:49.781Z,9.13
2022-10-19T02:57:49.822Z,9.13
2022-10-19T02:58:49.798Z,9.11
2022-10-19T02:59:49.757Z,9.14
2022-10-19T03:00:49.873Z,9.13
2022-10-19T03:01:49.742Z,9.19
2022-10-19T03:02:49.738Z,9.18
2022-10-19T03:03:49.780Z,9.19
2022-10-19T03:04:49.774Z,9.19
2022-10-19T03:05:49.707Z,9.25
2022-10-19T03:06:49.709Z,9.29
2022-10-19T03:07:49.695Z,9.28
2022-10-19T03:08:49.700Z,9.28
2022-10-19T03:09:49.687Z,9.31
2022-10-19T03:10:49.691Z,9.26
2022-10-19T03:11:49.667Z,9.32
2022-10-19T03:12:49.651Z,9.31
2022-10-19T03:13:49.649Z,9.31
2022-10-19T03:14:49.661Z,9.32
2022-10-19T03:15:49.632Z,9.22
2022-10-19T03:16:49.620Z,9.08
2022-10-19T03:17:49.636Z,9.21
2022-10-19T03:18:49.603Z,9.11
2022-10-19T03:19:49.604Z,9.10
2022-10-19T03:20:49.596Z,9.11
2022-10-19T03:21:49.581Z,9.11
2022-10-19T03:22:49.604Z,9.23
2022-10-19T03:23:49.588Z,9.22
2022-10-19T03:24:49.601Z,9.28
2022-10-19T03:25:49.556Z,9.19
2022-10-19T03:26:49.551Z,9.23
2022-10-19T03:27:49.539Z,9.25
2022-10-19T03:28:49.559Z,9.25
2022-10-19T03:29:49.531Z,9.16
2022-10-19T03:30:49.532Z,9.23
2022-10-19T03:31:49.510Z,9.34
2022-10-19T03:32:49.505Z,9.21
2022-10-19T03:33:49.517Z,9.18
2022-10-19T03:34:49.490Z,9.19
2022-10-19T03:35:49.471Z,9.18
2022-10-19T03:36:49.481Z,9.11
2022-10-19T03:37:49.470Z,9.08
2022-10-19T03:38:49.468Z,9.14
2022-10-19T03:39:49.465Z,9.18
2022-10-19T03:40:49.452Z,9.04
2022-10-19T03:41:49.437Z,9.11
2022-10-19T03:42:49.427Z,9.13
2022-10-19T03:43:49.475Z,9.10
2022-10-19T03:44:49.413Z,9.06
2022-10-19T03:45:49.413Z,8.92
2022-10-19T03:46:49.401Z,9.00
2022-10-19T03:47:49.447Z,8.88
2022-10-19T03:48:49.383Z,8.88
2022-10-19T03:49:49.411Z,8.94
2022-10-19T03:50:49.369Z,8.88
2022-10-19T03:51:49.361Z,8.94
2022-10-19T03:52:49.435Z,8.87
2022-10-19T03:53:49.361Z,8.79
2022-10-19T03:54:49.331Z,8.88
2022-10-19T03:55:49.327Z,8.84
2022-10-19T03:56:49.355Z,8.89
2022-10-19T03:57:49.335Z,8.88
2022-10-19T03:58:49.309Z,8.82
2022-10-19T03:59:49.320Z,8.76
2022-10-19T04:00:49.353Z,8.70
2022-10-19T04:01:49.310Z,8.81
2022-10-19T04:02:49.284Z,8.73
2022-10-19T04:03:49.277Z,8.74
2022-10-19T04:04:49.271Z,8.73
2022-10-19T04:05:49.261Z,8.69
2022-10-19T04:06:49.251Z,8.64
2022-10-19T04:07:49.263Z,8.74
2022-10-19T04:08:49.240Z,8.67
2022-10-19T04:09:49.243Z,8.52
2022-10-19T04:10:49.249Z,8.58
2022-10-19T04:11:49.214Z,8.44
2022-10-19T04:12:53.664Z,8.37
2022-10-19T04:13:49.199Z,8.37
2022-10-19T04:14:57.693Z,8.34
2022-10-19T04:15:50.202Z,8.34
2022-10-19T04:16:49.202Z,8.26
2022-10-19T04:17:49.173Z,8.28
2022-10-19T04:18:49.170Z,8.34
2022-10-19T04:19:49.158Z,8.45
2022-10-19T04:20:49.161Z,8.46
2022-10-19T04:21:49.146Z,8.48
2022-10-19T04:22:49.163Z,8.51
2022-10-19T04:23:49.127Z,8.51
2022-10-19T04:24:49.121Z,8.51
2022-10-19T04:25:49.120Z,8.46
2022-10-19T04:26:49.105Z,8.60
2022-10-19T04:27:49.096Z,8.46
2022-10-19T04:28:49.154Z,8.42
2022-10-19T04:29:49.101Z,8.53
2022-10-19T04:30:49.065Z,8.66
2022-10-19T04:31:49.069Z,8.56
2022-10-19T04:32:49.063Z,8.60
2022-10-19T04:33:49.060Z,8.69
2022-10-19T04:34:49.064Z,8.67
2022-10-19T04:35:49.037Z,8.66
2022-10-19T04:36:49.034Z,8.76
2022-10-19T04:37:49.018Z,8.67
2022-10-19T04:38:49.017Z,8.64
2022-10-19T04:39:49.000Z,8.76
2022-10-19T04:40:49.017Z,8.79
2022-10-19T04:41:48.985Z,8.81
2022-10-19T04:42:48.981Z,8.79
2022-10-19T04:43:48.981Z,8.71
2022-10-19T04:44:48.969Z,8.67
2022-10-19T04:45:48.954Z,8.67
2022-10-19T04:46:48.971Z,8.63
2022-10-19T04:47:48.938Z,8.56
2022-10-19T04:48:48.937Z,8.64
2022-10-19T04:49:48.927Z,8.55
2022-10-19T04:50:48.925Z,8.67
2022-10-19T04:51:48.923Z,8.67
2022-10-19T04:52:48.913Z,8.66
2022-10-19T04:53:48.894Z,8.73
2022-10-19T04:54:48.908Z,8.64
2022-10-19T04:55:48.881Z,8.67
2022-10-19T04:56:48.876Z,8.70
2022-10-19T04:57:48.872Z,8.58
2022-10-19T04:58:48.851Z,8.63
2022-10-19T04:59:48.838Z,8.69
2022-10-19T05:00:48.875Z,8.64
2022-10-19T05:01:48.852Z,8.70
2022-10-19T05:02:48.833Z,8.63
2022-10-19T05:03:48.851Z,8.53
2022-10-19T05:04:48.857Z,8.60
2022-10-19T05:05:48.796Z,8.60
2022-10-19T05:06:48.788Z,8.55
2022-10-19T05:07:48.787Z,8.51
2022-10-19T05:08:48.784Z,8.53
2022-10-19T05:09:48.791Z,8.52
2022-10-19T05:10:48.781Z,8.61
2022-10-19T05:11:48.754Z,8.48
2022-10-19T05:12:48.741Z,8.51
2022-10-19T05:13:48.734Z,8.49
2022-10-19T05:14:48.796Z,8.44
2022-10-19T05:15:48.721Z,8.46
2022-10-19T05:16:48.724Z,8.46
2022-10-19T05:17:48.708Z,8.46
2022-10-19T05:18:48.705Z,8.45
2022-10-19T05:19:48.700Z,8.49
2022-10-19T05:20:48.710Z,8.49
2022-10-19T05:21:48.681Z,8.46
2022-10-19T05:22:48.682Z,8.46
2022-10-19T05:23:48.673Z,8.46
2022-10-19T05:24:48.667Z,8.37
2022-10-19T05:25:48.668Z,8.48
2022-10-19T05:26:48.667Z,8.51
2022-10-19T05:27:48.640Z,8.45
2022-10-19T05:28:48.685Z,8.60
2022-10-19T05:29:48.624Z,8.60
2022-10-19T05:30:49.126Z,8.63
2022-10-19T05:31:48.640Z,8.58
2022-10-19T05:32:48.603Z,8.63
2022-10-19T05:33:48.595Z,8.67
2022-10-19T05:34:48.585Z,8.61
2022-10-19T05:35:48.587Z,8.53
2022-10-19T05:36:48.569Z,8.70
2022-10-19T05:37:48.582Z,8.70
2022-10-19T05:38:48.558Z,8.71
2022-10-19T05:39:48.545Z,8.81
2022-10-19T05:40:52.954Z,8.71
2022-10-19T05:41:49.529Z,8.52
2022-10-19T05:42:48.530Z,8.61
2022-10-19T05:43:48.527Z,8.64
2022-10-19T05:44:48.542Z,8.64
2022-10-19T05:45:48.499Z,8.53
2022-10-19T05:46:48.494Z,8.63
2022-10-19T05:47:48.490Z,8.58
2022-10-19T05:48:48.481Z,8.63
2022-10-19T05:49:48.473Z,8.63
2022-10-19T05:50:48.484Z,8.61
2022-10-19T05:51:48.453Z,8.51
2022-10-19T05:52:48.455Z,8.52
2022-10-19T05:53:48.466Z,8.64
2022-10-19T05:54:48.445Z,8.64
2022-10-19T05:55:48.442Z,8.56
2022-10-19T05:56:48.423Z,8.63
2022-10-19T05:57:48.461Z,8.48
2022-10-19T05:58:48.399Z,8.46
2022-10-19T05:59:48.397Z,8.44
2022-10-19T06:00:48.390Z,8.42
2022-10-19T06:01:48.434Z,8.49
2022-10-19T06:02:48.373Z,8.51
2022-10-19T06:03:48.384Z,8.48
2022-10-19T06:04:48.389Z,8.45
2022-10-19T06:05:48.362Z,8.42
2022-10-19T06:06:48.350Z,8.46
2022-10-19T06:07:48.344Z,8.51
2022-10-19T06:08:48.366Z,8.51
2022-10-19T06:09:48.337Z,8.52
2022-10-19T06:10:48.337Z,8.51
2022-10-19T06:11:48.319Z,8.56
2022-10-19T06:12:48.305Z,8.64
2022-10-19T06:13:48.324Z,8.61
2022-10-19T06:14:48.360Z,8.51
2022-10-19T06:15:48.294Z,8.52
2022-10-19T06:16:48.281Z,8.60
2022-10-19T06:17:48.263Z,8.69
2022-10-19T06:18:48.274Z,8.67
2022-10-19T06:19:48.255Z,8.73
2022-10-19T06:20:48.273Z,8.70
2022-10-19T06:21:48.264Z,8.67
2022-10-19T06:22:48.234Z,8.73
2022-10-19T06:23:48.237Z,8.69
2022-10-19T06:24:48.225Z,8.71
2022-10-19T06:25:48.214Z,8.63
2022-10-19T06:26:48.226Z,8.60
2022-10-19T06:27:48.228Z,8.64
2022-10-19T06:28:48.194Z,8.66
2022-10-19T06:29:48.179Z,8.69
2022-10-19T06:30:48.260Z,8.67
2022-10-19T06:31:48.183Z,8.67
2022-10-19T06:32:48.261Z,8.61
2022-10-19T06:33:49.471Z,8.63
2022-10-19T06:34:48.841Z,8.63
2022-10-19T06:35:48.153Z,8.55
2022-10-19T06:36:48.136Z,8.67
2022-10-19T06:37:48.121Z,8.70
2022-10-19T06:38:48.150Z,8.66
2022-10-19T06:39:48.145Z,8.69
2022-10-19T06:40:48.105Z,8.66
2022-10-19T06:41:48.101Z,8.55
2022-10-19T06:42:48.110Z,8.58
2022-10-19T06:43:48.090Z,8.73
2022-10-19T06:44:48.100Z,8.66
2022-10-19T06:45:48.093Z,8.73
2022-10-19T06:46:48.067Z,8.81
2022-10-19T06:48:48.045Z,8.74
2022-10-19T06:49:48.070Z,8.70
2022-10-19T06:50:48.034Z,8.71
2022-10-19T06:51:48.030Z,8.74
2022-10-19T06:52:48.014Z,8.79
2022-10-19T06:53:49.708Z,8.88
2022-10-19T06:54:49.014Z,8.81
2022-10-19T06:55:48.000Z,8.84
2022-10-19T06:57:47.978Z,8.92
2022-10-19T06:58:47.973Z,8.87
2022-10-19T06:59:50.186Z,8.99
2022-10-19T07:00:48.012Z,8.97
2022-10-19T07:01:47.976Z,8.91
2022-10-19T07:02:47.939Z,9.02
2022-10-19T07:03:47.929Z,8.97
2022-10-19T07:04:47.929Z,8.87
2022-10-19T07:05:47.916Z,8.85
2022-10-19T07:06:47.915Z,8.92
2022-10-19T07:07:47.947Z,8.92
2022-10-19T07:08:47.894Z,8.94
2022-10-19T07:09:47.887Z,8.94
2022-10-19T07:10:47.882Z,8.97
2022-10-19T07:11:47.862Z,8.95
2022-10-19T07:12:47.865Z,9.08
2022-10-19T07:13:47.880Z,9.11
2022-10-19T07:14:47.849Z,9.06
2022-10-19T07:15:47.834Z,9.02
2022-10-19T07:16:47.852Z,9.06
2022-10-19T07:17:47.830Z,9.11
2022-10-19T07:18:47.825Z,9.04
2022-10-19T07:19:47.813Z,9.10
2022-10-19T07:20:47.800Z,9.14
2022-10-19T07:21:47.785Z,9.08
2022-10-19T07:22:47.805Z,8.99
2022-10-19T07:23:47.799Z,8.94
2022-10-19T07:24:47.769Z,8.97
2022-10-19T07:25:47.762Z,8.95
2022-10-19T07:26:47.770Z,8.87
2022-10-19T07:27:47.755Z,8.97
2022-10-19T07:28:47.740Z,8.81
2022-10-19T07:29:47.742Z,8.91
2022-10-19T07:30:47.724Z,8.81
2022-10-19T07:31:47.712Z,8.87
2022-10-19T07:32:47.703Z,8.87
2022-10-19T07:33:47.692Z,8.92
2022-10-19T07:34:47.712Z,8.89
2022-10-19T07:35:47.690Z,8.89
2022-10-19T07:36:47.675Z,8.87
2022-10-19T07:37:47.669Z,8.91
2022-10-19T07:38:47.667Z,8.94
2022-10-19T07:39:47.650Z,8.94
2022-10-19T07:43:33.196Z,8.88
2022-10-19T07:44:19.268Z,8.89
2022-10-19T07:45:19.252Z,9.02
2022-10-19T07:46:19.274Z,9.03
2022-10-19T07:47:19.264Z,9.16
2022-10-19T07:48:19.237Z,9.06
2022-10-19T07:49:19.229Z,9.14
2022-10-19T07:50:19.232Z,9.18
2022-10-19T07:51:19.252Z,9.21
2022-10-19T07:52:19.233Z,9.22
2022-10-19T07:53:19.197Z,9.21
2022-10-19T07:54:19.196Z,9.21
2022-10-19T07:55:19.209Z,9.26
2022-10-19T07:56:19.186Z,9.23
2022-10-19T07:57:19.182Z,9.26
2022-10-19T07:58:19.291Z,9.28
2022-10-19T07:59:19.176Z,9.34
2022-10-19T08:00:19.155Z,9.41
2022-10-19T08:01:19.136Z,9.47
2022-10-19T08:02:19.163Z,9.56
2022-10-19T08:04:13.848Z,9.66
2022-10-19T08:05:20.188Z,9.59
2022-10-19T08:06:19.095Z,9.61
2022-10-19T08:07:19.111Z,9.68
2022-10-19T08:08:19.083Z,9.69
2022-10-19T08:09:47.342Z,9.73
2022-10-19T08:10:20.108Z,9.69
2022-10-19T08:11:19.073Z,9.72
2022-10-19T08:12:19.064Z,9.80
2022-10-19T08:13:19.043Z,9.84
2022-10-19T08:14:19.041Z,9.89
2022-10-19T08:15:19.049Z,9.86
2022-10-19T08:16:19.023Z,10.02
2022-10-19T08:17:19.046Z,10.10
2022-10-19T08:18:19.050Z,10.09
2022-10-19T08:19:18.993Z,10.23
2022-10-19T08:20:19.002Z,10.38
2022-10-19T08:21:18.984Z,10.31
2022-10-19T08:22:18.973Z,10.19
2022-10-19T08:23:18.988Z,10.34
2022-10-19T08:24:18.988Z,10.20
2022-10-19T08:25:18.968Z,10.30
2022-10-19T08:26:18.950Z,10.28
2022-10-19T08:27:18.930Z,10.15
2022-10-19T08:28:18.931Z,10.02
2022-10-19T08:29:18.963Z,10.09
2022-10-19T08:30:18.919Z,10.10
2022-10-19T08:31:18.959Z,10.15
2022-10-19T08:32:18.894Z,10.17
2022-10-19T08:33:18.892Z,10.28
2022-10-19T08:34:18.900Z,10.37
2022-10-19T08:35:18.865Z,10.37
2022-10-19T08:36:18.864Z,10.40
2022-10-19T08:37:26.374Z,10.51
2022-10-19T08:38:19.846Z,10.75
2022-10-19T08:39:18.837Z,10.78
2022-10-19T08:40:18.835Z,10.82
2022-10-19T08:41:18.845Z,11.08
2022-10-19T08:42:18.811Z,11.36
2022-10-19T08:43:18.817Z,12.15
2022-10-19T08:44:18.799Z,12.42
2022-10-19T08:45:18.789Z,12.75
2022-10-19T08:46:18.800Z,13.05
2022-10-19T08:47:23.253Z,13.44
2022-10-19T08:48:18.783Z,14.18
2022-10-19T08:49:18.778Z,13.92
2022-10-19T08:50:18.753Z,13.68
2022-10-19T08:51:18.761Z,13.86
2022-10-19T08:52:18.761Z,14.37
2022-10-19T08:53:18.733Z,15.49
2022-10-19T08:54:18.722Z,15.76
2022-10-19T08:55:20.569Z,16.21
2022-10-19T08:56:38.863Z,16.28
2022-10-19T08:57:19.697Z,16.24
2022-10-19T08:58:18.688Z,17.49
2022-10-19T08:59:18.679Z,18.58
2022-10-19T09:00:18.682Z,19.39
2022-10-19T09:01:18.700Z,20.26
2022-10-19T09:02:18.660Z,19.94
2022-10-19T09:03:27.130Z,20.92
2022-10-19T09:04:19.652Z,21.22
2022-10-19T09:05:18.630Z,21.77
2022-10-19T09:06:18.628Z,22.28
2022-10-19T09:07:18.640Z,22.65
2022-10-19T09:08:18.606Z,23.43
2022-10-19T09:09:18.602Z,23.86
2022-10-19T09:10:18.589Z,23.65
2022-10-19T09:11:18.589Z,23.62
2022-10-19T09:12:18.577Z,23.48
2022-10-19T09:13:18.587Z,23.36
2022-10-19T09:14:18.554Z,23.28
2022-10-19T09:15:18.560Z,22.60
2022-10-19T09:16:18.538Z,22.85
2022-10-19T09:17:18.535Z,22.15
2022-10-19T09:18:18.549Z,22.08
2022-10-19T09:19:18.520Z,22.88
2022-10-19T09:20:18.561Z,23.17
2022-10-19T09:21:18.495Z,23.15
2022-10-19T09:22:18.498Z,22.90
2022-10-19T09:23:18.487Z,23.13
2022-10-19T09:24:18.498Z,23.61
2022-10-19T09:25:18.472Z,23.77
2022-10-19T09:26:18.464Z,23.91
2022-10-19T09:27:18.458Z,23.93
2022-10-19T09:28:18.465Z,24.06
2022-10-19T09:29:18.441Z,24.17
2022-10-19T09:30:18.513Z,24.53
2022-10-19T09:31:18.426Z,24.57
2022-10-19T09:32:18.424Z,24.40
2022-10-19T09:33:18.430Z,24.70
2022-10-19T09:34:18.411Z,24.73
2022-10-19T09:35:18.425Z,25.01
2022-10-19T09:36:23.047Z,25.21
2022-10-19T09:37:25.708Z,25.50
2022-10-19T09:38:19.384Z,25.54
2022-10-19T09:39:18.370Z,25.35
2022-10-19T09:40:18.419Z,25.69
2022-10-19T09:41:18.378Z,25.62
2022-10-19T09:42:18.352Z,24.47
2022-10-19T09:43:18.342Z,24.65
2022-10-19T09:44:18.330Z,24.65
2022-10-19T09:45:18.331Z,24.68
2022-10-19T09:46:20.316Z,25.33
2022-10-19T09:47:18.344Z,25.75
2022-10-19T09:48:18.326Z,25.85
2022-10-19T09:49:18.298Z,26.43
2022-10-19T09:50:18.386Z,26.62
2022-10-19T09:51:18.314Z,26.28
2022-10-19T09:52:18.290Z,26.18
2022-10-19T09:53:18.271Z,26.25
2022-10-19T09:54:18.286Z,26.21
2022-10-19T09:55:18.260Z,26.28
2022-10-19T09:56:18.250Z,25.87
2022-10-19T09:57:18.266Z,25.38
2022-10-19T09:58:18.259Z,25.53
2022-10-19T09:59:18.230Z,25.54
2022-10-19T10:00:18.221Z,25.35
2022-10-19T10:01:18.240Z,24.84
2022-10-19T10:02:18.224Z,24.96
2022-10-19T10:03:18.207Z,24.51
2022-10-19T10:04:18.200Z,24.28
2022-10-19T10:05:18.197Z,24.28
2022-10-19T10:06:18.209Z,24.16
2022-10-19T10:07:18.184Z,24.69
2022-10-19T10:08:18.166Z,24.70
2022-10-19T10:09:18.169Z,24.60
2022-10-19T10:10:18.167Z,24.68
2022-10-19T10:11:18.180Z,24.51
2022-10-19T10:12:18.143Z,24.30
2022-10-19T10:13:18.131Z,23.86
2022-10-19T10:14:18.131Z,23.18
2022-10-19T10:15:18.121Z,22.93
2022-10-19T10:16:18.124Z,22.59
2022-10-19T10:17:18.134Z,22.23
2022-10-19T10:18:18.113Z,22.29
2022-10-19T10:19:18.117Z,22.00
2022-10-19T10:20:18.090Z,21.83
2022-10-19T10:21:20.537Z,21.72
2022-10-19T10:22:18.095Z,21.32
2022-10-19T10:23:18.066Z,21.15
2022-10-19T10:24:18.062Z,20.31
2022-10-19T10:25:18.082Z,19.69
2022-10-19T10:26:18.041Z,19.69
2022-10-19T10:27:18.031Z,19.58
2022-10-19T10:28:18.033Z,19.37
2022-10-19T10:29:18.027Z,19.44
2022-10-19T10:30:18.011Z,19.24
2022-10-19T10:31:18.034Z,19.18
2022-10-19T10:32:17.999Z,19.21
2022-10-19T10:33:26.910Z,19.11
2022-10-19T10:34:23.164Z,18.60
2022-10-19T10:35:18.981Z,18.38
2022-10-19T10:36:18.007Z,18.05
2022-10-19T10:37:17.967Z,18.38
2022-10-19T10:38:17.951Z,18.45
2022-10-19T10:39:17.962Z,18.53
2022-10-19T10:40:21.330Z,18.73
2022-10-19T10:41:17.974Z,18.49
2022-10-19T10:42:17.929Z,18.05
2022-10-19T10:43:17.925Z,17.98
2022-10-19T10:44:17.934Z,17.63
2022-10-19T10:45:17.910Z,17.19
2022-10-19T10:46:17.916Z,16.78
2022-10-19T10:47:17.923Z,16.42
2022-10-19T10:48:17.907Z,16.20
2022-10-19T10:49:17.872Z,16.17
2022-10-19T10:50:17.868Z,16.50
2022-10-19T10:51:17.889Z,16.69
2022-10-19T10:52:17.855Z,16.84
2022-10-19T10:53:17.856Z,17.05
2022-10-19T10:54:17.863Z,17.05
2022-10-19T10:55:17.836Z,17.20
2022-10-19T10:56:17.818Z,17.14
2022-10-19T10:57:17.849Z,17.22
2022-10-19T10:58:17.816Z,17.29
2022-10-19T10:59:17.814Z,17.51
2022-10-19T11:00:17.799Z,17.74
2022-10-19T11:01:17.799Z,17.60
2022-10-19T11:02:17.810Z,17.67
2022-10-19T11:03:17.764Z,17.63
2022-10-19T11:04:17.763Z,17.70
2022-10-19T11:05:17.772Z,17.44
2022-10-19T11:06:17.795Z,17.26
2022-10-19T11:07:17.747Z,17.14
2022-10-19T11:08:17.737Z,17.30
2022-10-19T11:09:17.737Z,17.59
2022-10-19T11:10:17.755Z,17.70
2022-10-19T11:11:17.715Z,17.79
2022-10-19T11:12:17.712Z,18.01
2022-10-19T11:13:17.694Z,17.71
2022-10-19T11:14:17.689Z,17.34
2022-10-19T11:15:17.775Z,17.67
2022-10-19T11:16:17.729Z,17.52
2022-10-19T11:17:17.664Z,17.33
2022-10-19T11:18:17.706Z,17.09
2022-10-19T11:19:17.649Z,17.04
2022-10-19T11:20:17.659Z,17.39
2022-10-19T11:21:17.653Z,17.76
2022-10-19T11:22:17.655Z,17.76
2022-10-19T11:23:17.634Z,17.74
2022-10-19T11:24:17.662Z,17.82
2022-10-19T11:25:17.598Z,17.71
2022-10-19T11:26:17.616Z,17.68
2022-10-19T11:27:17.631Z,17.89
2022-10-19T11:28:17.578Z,17.94
2022-10-19T11:29:17.566Z,17.79
2022-10-19T11:30:17.571Z,17.71
2022-10-19T11:31:17.564Z,17.70
2022-10-19T11:32:17.554Z,17.92
2022-10-19T11:33:17.573Z,17.60
2022-10-19T11:34:18.060Z,17.38
2022-10-19T11:35:17.528Z,17.39
2022-10-19T11:36:17.522Z,17.34
2022-10-19T11:37:17.519Z,17.09
2022-10-19T11:38:20.705Z,17.05
2022-10-19T11:39:18.514Z,17.33
2022-10-19T11:40:21.842Z,17.16
2022-10-19T11:41:18.607Z,16.91
2022-10-19T11:42:17.482Z,17.05
2022-10-19T11:43:17.467Z,17.22
2022-10-19T11:44:17.537Z,17.38
2022-10-19T11:45:17.452Z,17.59
2022-10-19T11:46:17.452Z,17.44
2022-10-19T11:47:17.445Z,17.41
2022-10-19T11:48:17.440Z,17.39
2022-10-19T11:49:17.435Z,17.45
2022-10-19T11:50:17.459Z,17.60
2022-10-19T11:51:21.809Z,17.48
2022-10-19T11:52:17.402Z,17.41
2022-10-19T11:53:17.392Z,17.67
2022-10-19T11:54:17.389Z,17.72
2022-10-19T11:55:17.408Z,17.74
2022-10-19T11:56:17.391Z,17.68
2022-10-19T11:57:17.368Z,17.67
2022-10-19T11:58:17.359Z,17.72
2022-10-19T11:59:17.386Z,17.68
2022-10-19T12:00:37.704Z,17.78
2022-10-19T12:01:18.355Z,17.57
2022-10-19T12:02:17.441Z,17.79
2022-10-19T12:03:17.329Z,17.80
2022-10-19T12:04:17.317Z,17.85
2022-10-19T12:05:17.306Z,17.87
2022-10-19T12:06:17.298Z,17.95
2022-10-19T12:07:17.312Z,17.90
2022-10-19T12:08:17.299Z,17.90
2022-10-19T12:09:17.351Z,17.98
2022-10-19T12:10:17.274Z,18.05
2022-10-19T12:11:17.273Z,18.04
2022-10-19T12:12:17.286Z,17.98
2022-10-19T12:13:17.249Z,17.97
2022-10-19T12:14:17.252Z,17.97
2022-10-19T12:15:17.335Z,17.90
2022-10-19T12:16:17.233Z,17.72
2022-10-19T12:17:17.237Z,17.70
2022-10-19T12:18:17.243Z,17.70
2022-10-19T12:19:17.215Z,17.67
2022-10-19T12:20:19.709Z,17.70
2022-10-19T12:21:17.200Z,17.51
2022-10-19T12:22:17.192Z,17.49
2022-10-19T12:23:17.190Z,17.24
2022-10-19T12:24:17.175Z,17.36
2022-10-19T12:25:17.174Z,17.31
2022-10-19T12:27:17.149Z,17.29
2022-10-19T12:28:17.167Z,17.20
2022-10-19T12:29:17.127Z,17.16
2022-10-19T12:30:17.133Z,17.11
2022-10-19T12:31:17.118Z,17.06
2022-10-19T12:32:17.113Z,17.05
2022-10-19T12:33:17.123Z,17.04
2022-10-19T12:34:17.115Z,16.90
2022-10-19T12:35:17.219Z,16.89
2022-10-19T12:36:17.072Z,16.99
2022-10-19T12:37:17.072Z,16.91
2022-10-19T12:38:17.067Z,16.93
2022-10-19T12:39:17.064Z,17.05
2022-10-19T12:40:17.062Z,17.06
2022-10-19T12:41:17.037Z,17.09
2022-10-19T12:42:17.038Z,17.14
2022-10-19T12:43:17.022Z,17.05
2022-10-19T12:44:17.107Z,17.05
2022-10-19T12:45:17.024Z,16.81
2022-10-19T12:46:17.003Z,16.84
2022-10-19T12:47:17.008Z,16.83
2022-10-19T12:48:17.023Z,16.89
2022-10-19T12:49:16.978Z,16.99
2022-10-19T12:50:17.009Z,16.97
2022-10-19T12:51:16.957Z,16.99
2022-10-19T12:52:16.972Z,17.05
2022-10-19T12:53:16.998Z,16.87
2022-10-19T12:54:16.947Z,16.94
2022-10-19T12:55:16.950Z,16.96
2022-10-19T12:56:16.923Z,16.75
2022-10-19T12:57:21.902Z,16.79
2022-10-19T12:58:17.906Z,16.78
2022-10-19T12:59:16.931Z,16.68
2022-10-19T13:00:16.896Z,16.69
2022-10-19T13:01:16.977Z,16.76
2022-10-19T13:02:16.882Z,16.78
2022-10-19T13:03:16.887Z,16.76
2022-10-19T13:04:16.892Z,16.66
2022-10-19T13:05:16.853Z,16.66
2022-10-19T13:06:16.844Z,16.65
2022-10-19T13:07:16.834Z,16.86
2022-10-19T13:08:16.830Z,16.83
2022-10-19T13:09:16.819Z,16.72
2022-10-19T13:10:16.837Z,16.64
2022-10-19T13:11:16.808Z,16.58
2022-10-19T13:12:21.305Z,16.58
2022-10-19T13:13:17.788Z,16.43
2022-10-19T13:14:16.784Z,16.42
2022-10-19T13:15:16.772Z,16.47
2022-10-19T13:16:16.773Z,16.47